Time;durP1;ratioP1;P1;durP2;ratioP2;P2;SDS_P1;SDS_P2;PMS_P1;PMS_P2;Temp;Humidity;BMP_temperature;BMP_pressure;BME280_temperature;BME280_humidity;BME280_pressure;Samples;Min_cycle;Max_cycle;Signal;HPM_P1;HPM_P2
2022/08/23 00:00:06;;;;;;;2.53;1.60;;;;;;;;;;337522;29;905;-82
2022/08/23 00:00:17;;;;;;;2.78;1.80;;;;;;;;;;338908;29;887;-82
2022/08/23 00:00:27;;;;;;;3.50;1.92;;;;;;;;;;341178;29;1195;-85
2022/08/23 00:00:38;;;;;;;3.27;1.87;;;;;;;;;;341058;29;1141;-82
2022/08/23 00:00:48;;;;;;;3.40;1.90;;;;;;;;;;338702;29;1268;-82
2022/08/23 00:00:58;;;;;;;3.17;1.80;;;;;;;;;;340000;29;1384;-87
2022/08/23 00:01:10;;;;;;;3.80;1.80;;;;;;;;;;337157;29;1269;-82
2022/08/23 00:01:25;;;;;;;3.97;1.70;;;;;;;;;;337477;29;1415;-82
2022/08/23 00:01:38;;;;;;;4.30;1.80;;;;;;;;;;339988;29;943;-82
2022/08/23 00:01:49;;;;;;;3.97;1.80;;;;;;;;;;338600;29;1250;-82
2022/08/23 00:02:01;;;;;;;3.03;1.70;;;;;;;;;;339991;29;1170;-82
2022/08/23 00:02:11;;;;;;;3.53;1.70;;;;;;;;;;338634;29;860;-82
2022/08/23 00:02:22;;;;;;;3.57;1.60;;;;;;;;;;337494;29;1301;-82
2022/08/23 00:02:32;;;;;;;3.53;1.70;;;;;;;;;;339881;29;1293;-81
2022/08/23 00:02:43;;;;;;;3.33;1.57;;;;;;;;;;338675;29;1236;-83
2022/08/23 00:02:54;;;;;;;3.22;1.60;;;;;;;;;;337446;29;1217;-82
2022/08/23 00:03:05;;;;;;;3.20;1.55;;;;;;;;;;338709;29;1914;-82
2022/08/23 00:03:15;;;;;;;3.08;1.58;;;;;;;;;;338611;29;848;-82
2022/08/23 00:03:26;;;;;;;4.78;1.58;;;;;;;;;;338823;29;794;-82
2022/08/23 00:03:36;;;;;;;5.10;1.40;;;;;;;;;;338632;29;1011;-82
2022/08/23 00:03:48;;;;;;;4.78;1.50;;;;;;;;;;338538;29;1177;-82
2022/08/23 00:04:05;;;;;;;3.20;1.60;;;;;;;;;;339618;29;1299;-85
2022/08/23 00:04:19;;;;;;;4.00;1.73;;;;;;;;;;338492;29;999;-82
2022/08/23 00:04:31;;;;;;;3.35;1.70;;;;;;;;;;339688;29;1364;-82
2022/08/23 00:04:42;;;;;;;2.78;1.60;;;;;;;;;;338668;29;907;-86
2022/08/23 00:04:53;;;;;;;3.23;1.70;;;;;;;;;;337499;29;1167;-82
2022/08/23 00:05:04;;;;;;;5.28;2.63;;;;;;;;;;338785;29;916;-85
2022/08/23 00:05:14;;;;;;;4.90;2.65;;;;;;;;;;341136;29;1312;-82
2022/08/23 00:05:25;;;;;;;5.43;2.67;;;;;;;;;;341389;29;1153;-82
2022/08/23 00:05:35;;;;;;;3.85;1.98;;;;;;;;;;341191;29;1246;-82
2022/08/23 00:05:46;;;;;;;4.40;2.10;;;;;;;;;;337422;29;1308;-87
2022/08/23 00:05:56;;;;;;;4.50;2.00;;;;;;;;;;340039;29;1374;-82
2022/08/23 00:06:07;;;;;;;4.03;1.80;;;;;;;;;;339994;29;1530;-82
2022/08/23 00:06:18;;;;;;;3.42;1.60;;;;;;;;;;338646;29;920;-82
2022/08/23 00:06:29;;;;;;;3.20;1.63;;;;;;;;;;339929;29;1150;-86
2022/08/23 00:06:40;;;;;;;3.85;1.63;;;;;;;;;;338654;29;1556;-82
2022/08/23 00:06:52;;;;;;;4.30;1.70;;;;;;;;;;336156;29;1351;-82
2022/08/23 00:07:04;;;;;;;4.00;1.60;;;;;;;;;;338799;29;864;-86
2022/08/23 00:07:14;;;;;;;4.22;1.63;;;;;;;;;;341231;29;995;-82
2022/08/23 00:07:26;;;;;;;2.75;1.60;;;;;;;;;;338881;29;785;-82
2022/08/23 00:07:38;;;;;;;2.75;1.65;;;;;;;;;;338520;29;1267;-82
2022/08/23 00:07:48;;;;;;;2.60;1.63;;;;;;;;;;340140;29;1499;-86
2022/08/23 00:07:59;;;;;;;2.63;1.63;;;;;;;;;;338341;29;1427;-82
2022/08/23 00:08:09;;;;;;;3.05;1.70;;;;;;;;;;334345;29;1253;-82
2022/08/23 00:08:20;;;;;;;3.20;1.60;;;;;;;;;;339113;29;1171;-82
2022/08/23 00:08:31;;;;;;;3.25;1.75;;;;;;;;;;339865;29;1257;-82
2022/08/23 00:08:41;;;;;;;3.37;2.00;;;;;;;;;;337142;29;1373;-83
2022/08/23 00:08:52;;;;;;;4.18;1.90;;;;;;;;;;340000;29;1294;-82
2022/08/23 00:09:03;;;;;;;4.23;1.73;;;;;;;;;;339978;29;1170;-86
2022/08/23 00:09:14;;;;;;;4.07;1.58;;;;;;;;;;338503;29;1487;-83
2022/08/23 00:09:25;;;;;;;3.70;1.67;;;;;;;;;;341456;29;777;-82
2022/08/23 00:09:35;;;;;;;3.65;1.63;;;;;;;;;;342479;28;1295;-82
2022/08/23 00:09:46;;;;;;;3.45;1.60;;;;;;;;;;339988;29;1340;-82
2022/08/23 00:09:57;;;;;;;3.55;1.70;;;;;;;;;;340111;29;951;-83
2022/08/23 00:10:09;;;;;;;3.77;1.70;;;;;;;;;;341375;29;1375;-82
2022/08/23 00:10:20;;;;;;;3.65;1.83;;;;;;;;;;338597;29;907;-82
2022/08/23 00:10:31;;;;;;;3.65;1.83;;;;;;;;;;337399;29;934;-83
2022/08/23 00:10:41;;;;;;;3.67;1.83;;;;;;;;;;337459;29;907;-82
2022/08/23 00:10:52;;;;;;;3.28;1.70;;;;;;;;;;340138;29;647;-82
2022/08/23 00:11:03;;;;;;;3.20;1.70;;;;;;;;;;338737;28;1418;-82
2022/08/23 00:11:36;;;;;;;3.75;1.77;;;;;;;;;;339932;29;942;-82
2022/08/23 00:11:53;;;;;;;5.07;2.92;;;;;;;;;;339934;29;1167;-86
2022/08/23 00:12:14;;;;;;;3.42;2.20;;;;;;;;;;338355;29;1364;-82
2022/08/23 00:12:24;;;;;;;3.15;1.90;;;;;;;;;;341411;29;927;-82
2022/08/23 00:12:34;;;;;;;2.93;1.83;;;;;;;;;;342566;28;1360;-82
2022/08/23 00:12:45;;;;;;;3.08;1.70;;;;;;;;;;338728;29;1562;-86
2022/08/23 00:12:56;;;;;;;3.15;1.70;;;;;;;;;;340146;29;853;-82
2022/08/23 00:13:06;;;;;;;3.17;1.70;;;;;;;;;;340064;29;900;-82
2022/08/23 00:13:17;;;;;;;3.00;1.70;;;;;;;;;;337223;29;1335;-82
2022/08/23 00:13:27;;;;;;;2.77;1.70;;;;;;;;;;338682;29;1435;-83
2022/08/23 00:13:38;;;;;;;2.85;1.58;;;;;;;;;;340072;29;907;-82
2022/08/23 00:13:48;;;;;;;2.33;1.47;;;;;;;;;;340147;29;805;-82
2022/08/23 00:14:01;;;;;;;2.38;1.30;;;;;;;;;;338727;29;1381;-83
2022/08/23 00:14:20;;;;;;;3.40;1.30;;;;;;;;;;341731;28;1251;-82
2022/08/23 00:14:31;;;;;;;4.40;1.73;;;;;;;;;;341158;29;1166;-83
2022/08/23 00:14:51;;;;;;;3.80;1.80;;;;;;;;;;340123;29;955;-82
2022/08/23 00:15:01;;;;;;;3.55;1.60;;;;;;;;;;338721;29;845;-83
2022/08/23 00:15:13;;;;;;;2.57;1.53;;;;;;;;;;338877;29;915;-82
2022/08/23 00:15:24;;;;;;;2.75;1.65;;;;;;;;;;338841;29;864;-82
2022/08/23 00:15:34;;;;;;;3.25;1.98;;;;;;;;;;339671;29;1229;-83
2022/08/23 00:15:45;;;;;;;3.55;2.10;;;;;;;;;;337320;29;1210;-82
2022/08/23 00:15:56;;;;;;;3.70;2.00;;;;;;;;;;338783;29;872;-83
2022/08/23 00:16:06;;;;;;;3.70;1.87;;;;;;;;;;340785;29;1156;-82
2022/08/23 00:16:16;;;;;;;3.80;1.90;;;;;;;;;;341131;29;942;-82
2022/08/23 00:16:27;;;;;;;3.22;1.70;;;;;;;;;;340161;29;832;-82
2022/08/23 00:16:38;;;;;;;2.85;1.63;;;;;;;;;;340128;29;868;-82
2022/08/23 00:16:48;;;;;;;2.50;1.50;;;;;;;;;;341377;29;904;-83
2022/08/23 00:17:00;;;;;;;2.53;1.50;;;;;;;;;;340074;29;793;-86
2022/08/23 00:17:10;;;;;;;2.78;1.55;;;;;;;;;;339999;29;1183;-82
2022/08/23 00:17:21;;;;;;;3.00;1.60;;;;;;;;;;341145;29;834;-82
2022/08/23 00:17:32;;;;;;;2.85;1.50;;;;;;;;;;338633;29;896;-82
2022/08/23 00:17:42;;;;;;;3.17;1.50;;;;;;;;;;338840;29;899;-82
2022/08/23 00:17:53;;;;;;;3.30;1.50;;;;;;;;;;340171;29;852;-82
2022/08/23 00:18:03;;;;;;;4.03;1.67;;;;;;;;;;340058;29;797;-83
2022/08/23 00:18:15;;;;;;;4.60;1.80;;;;;;;;;;340074;29;872;-86
2022/08/23 00:18:25;;;;;;;5.45;1.85;;;;;;;;;;342731;28;1414;-82
2022/08/23 00:18:36;;;;;;;4.20;1.67;;;;;;;;;;338719;29;891;-82
2022/08/23 00:18:47;;;;;;;2.47;1.60;;;;;;;;;;338823;29;911;-85
2022/08/23 00:18:57;;;;;;;2.25;1.77;;;;;;;;;;340060;29;848;-82
2022/08/23 00:19:09;;;;;;;2.90;1.95;;;;;;;;;;340175;29;899;-82
2022/08/23 00:19:20;;;;;;;4.40;2.03;;;;;;;;;;340893;29;887;-82
2022/08/23 00:19:31;;;;;;;4.13;1.88;;;;;;;;;;342399;28;1341;-83
2022/08/23 00:19:41;;;;;;;4.23;1.83;;;;;;;;;;341495;29;801;-82
2022/08/23 00:19:52;;;;;;;3.45;1.85;;;;;;;;;;342733;28;887;-82
2022/08/23 00:20:06;;;;;;;3.37;1.80;;;;;;;;;;338638;29;1228;-87
2022/08/23 00:20:17;;;;;;;2.78;1.80;;;;;;;;;;342237;28;895;-82
2022/08/23 00:20:28;;;;;;;3.13;2.00;;;;;;;;;;341242;29;1153;-84
2022/08/23 00:20:38;;;;;;;3.73;2.00;;;;;;;;;;338815;29;916;-82
2022/08/23 00:20:49;;;;;;;3.65;2.00;;;;;;;;;;338739;29;1177;-87
2022/08/23 00:21:00;;;;;;;3.50;1.85;;;;;;;;;;339833;29;1296;-83
2022/08/23 00:21:12;;;;;;;3.20;1.73;;;;;;;;;;338821;29;849;-82
2022/08/23 00:21:22;;;;;;;3.53;1.83;;;;;;;;;;339780;29;1397;-82
2022/08/23 00:21:35;;;;;;;4.50;2.17;;;;;;;;;;340004;29;904;-83
2022/08/23 00:21:46;;;;;;;4.10;2.33;;;;;;;;;;337502;29;1443;-82
2022/08/23 00:21:56;;;;;;;3.57;2.00;;;;;;;;;;341182;29;1299;-82
2022/08/23 00:22:07;;;;;;;2.83;1.95;;;;;;;;;;341284;29;1332;-82
2022/08/23 00:22:17;;;;;;;2.57;1.63;;;;;;;;;;339828;29;863;-82
2022/08/23 00:22:28;;;;;;;2.78;1.73;;;;;;;;;;338691;29;1360;-84
2022/08/23 00:22:38;;;;;;;3.57;1.93;;;;;;;;;;337458;29;810;-82
2022/08/23 00:22:49;;;;;;;3.67;1.90;;;;;;;;;;339804;29;1483;-82
2022/08/23 00:22:59;;;;;;;4.00;1.60;;;;;;;;;;337969;29;1911;-83
2022/08/23 00:23:10;;;;;;;3.30;1.47;;;;;;;;;;342720;28;1409;-83
2022/08/23 00:23:20;;;;;;;3.22;1.88;;;;;;;;;;341122;29;1280;-83
2022/08/23 00:23:31;;;;;;;3.13;2.20;;;;;;;;;;342567;28;1473;-83
2022/08/23 00:23:41;;;;;;;3.10;2.07;;;;;;;;;;340034;29;1269;-82
2022/08/23 00:23:52;;;;;;;3.00;1.77;;;;;;;;;;341387;29;1178;-83
2022/08/23 00:24:03;;;;;;;3.53;1.80;;;;;;;;;;342585;28;820;-82
2022/08/23 00:24:14;;;;;;;3.70;1.90;;;;;;;;;;339992;29;1002;-82
2022/08/23 00:24:25;;;;;;;3.45;1.80;;;;;;;;;;341058;29;868;-82
2022/08/23 00:24:36;;;;;;;3.03;1.73;;;;;;;;;;339956;29;1343;-82
2022/08/23 00:24:48;;;;;;;3.63;1.70;;;;;;;;;;340028;29;1472;-82
2022/08/23 00:24:58;;;;;;;3.92;1.70;;;;;;;;;;341381;29;895;-85
2022/08/23 00:25:10;;;;;;;4.20;1.70;;;;;;;;;;338696;29;849;-82
2022/08/23 00:25:20;;;;;;;3.45;1.70;;;;;;;;;;337205;29;1376;-82
2022/08/23 00:25:31;;;;;;;2.90;1.52;;;;;;;;;;339922;29;1339;-87
2022/08/23 00:25:42;;;;;;;2.75;1.55;;;;;;;;;;341319;29;1467;-82
2022/08/23 00:25:52;;;;;;;2.53;1.50;;;;;;;;;;342799;28;805;-83
2022/08/23 00:26:03;;;;;;;2.70;1.58;;;;;;;;;;342632;28;1469;-83
2022/08/23 00:26:13;;;;;;;2.60;1.60;;;;;;;;;;343961;28;1534;-82
2022/08/23 00:26:24;;;;;;;3.42;1.58;;;;;;;;;;341641;28;1221;-82
2022/08/23 00:26:50;;;;;;;3.63;1.52;;;;;;;;;;338630;29;894;-82
2022/08/23 00:27:11;;;;;;;3.10;1.80;;;;;;;;;;338663;29;900;-83
2022/08/23 00:27:21;;;;;;;2.97;1.80;;;;;;;;;;339655;29;1261;-82
2022/08/23 00:27:32;;;;;;;2.80;1.88;;;;;;;;;;340046;29;1421;-83
2022/08/23 00:27:43;;;;;;;3.05;1.83;;;;;;;;;;340210;29;864;-82
2022/08/23 00:27:53;;;;;;;4.57;2.00;;;;;;;;;;338717;29;1400;-83
2022/08/23 00:28:04;;;;;;;4.78;1.98;;;;;;;;;;339911;29;1275;-82
2022/08/23 00:28:14;;;;;;;3.53;1.73;;;;;;;;;;339961;29;1380;-82
2022/08/23 00:28:25;;;;;;;2.75;1.63;;;;;;;;;;339542;29;836;-82
2022/08/23 00:28:35;;;;;;;2.30;1.40;;;;;;;;;;338712;29;1298;-82
2022/08/23 00:28:47;;;;;;;2.78;1.40;;;;;;;;;;338893;29;812;-82
2022/08/23 00:28:57;;;;;;;3.03;1.45;;;;;;;;;;341369;29;943;-83
2022/08/23 00:29:08;;;;;;;3.27;1.50;;;;;;;;;;342778;28;856;-82
2022/08/23 00:29:18;;;;;;;3.23;1.60;;;;;;;;;;338685;29;1203;-82
2022/08/23 00:29:31;;;;;;;3.25;1.75;;;;;;;;;;339749;29;1263;-85
2022/08/23 00:29:48;;;;;;;3.08;1.63;;;;;;;;;;341314;29;1452;-82
2022/08/23 00:29:58;;;;;;;3.35;1.77;;;;;;;;;;338667;29;1265;-86
2022/08/23 00:30:16;;;;;;;3.17;1.85;;;;;;;;;;341378;29;840;-82
2022/08/23 00:30:27;;;;;;;3.05;1.90;;;;;;;;;;341072;29;892;-82
2022/08/23 00:30:38;;;;;;;3.00;1.85;;;;;;;;;;341146;29;1383;-82
2022/08/23 00:30:48;;;;;;;3.00;1.85;;;;;;;;;;341401;29;1221;-82
2022/08/23 00:30:59;;;;;;;3.20;1.83;;;;;;;;;;341316;29;1249;-86
2022/08/23 00:31:09;;;;;;;3.67;1.70;;;;;;;;;;338802;29;868;-82
2022/08/23 00:31:20;;;;;;;4.47;1.60;;;;;;;;;;337228;29;805;-82
2022/08/23 00:31:30;;;;;;;5.77;1.57;;;;;;;;;;337518;29;846;-86
2022/08/23 00:31:41;;;;;;;5.72;1.77;;;;;;;;;;340150;29;841;-82
2022/08/23 00:31:51;;;;;;;4.40;1.80;;;;;;;;;;338639;29;1191;-86
2022/08/23 00:32:02;;;;;;;2.80;2.00;;;;;;;;;;338712;29;786;-83
2022/08/23 00:32:15;;;;;;;2.65;1.90;;;;;;;;;;340004;29;885;-82
2022/08/23 00:32:30;;;;;;;3.40;1.80;;;;;;;;;;336450;29;1160;-82
2022/08/23 00:32:42;;;;;;;3.35;1.60;;;;;;;;;;337403;29;1431;-82
2022/08/23 00:32:53;;;;;;;2.80;1.65;;;;;;;;;;342511;28;1351;-83
2022/08/23 00:33:03;;;;;;;2.43;1.60;;;;;;;;;;341231;29;1365;-82
2022/08/23 00:33:14;;;;;;;3.37;1.97;;;;;;;;;;341764;28;1447;-83
2022/08/23 00:33:24;;;;;;;3.63;2.00;;;;;;;;;;339715;29;1320;-82
2022/08/23 00:33:35;;;;;;;4.33;2.07;;;;;;;;;;339916;29;1270;-86
2022/08/23 00:33:45;;;;;;;4.03;1.90;;;;;;;;;;342762;28;1431;-82
2022/08/23 00:33:56;;;;;;;4.00;1.90;;;;;;;;;;341399;29;892;-82
2022/08/23 00:34:06;;;;;;;3.53;1.83;;;;;;;;;;342427;28;896;-82
2022/08/23 00:34:16;;;;;;;3.97;1.70;;;;;;;;;;338371;29;1199;-82
2022/08/23 00:34:27;;;;;;;4.33;1.70;;;;;;;;;;339795;29;1174;-82
2022/08/23 00:34:38;;;;;;;4.18;1.70;;;;;;;;;;340647;29;1186;-82
2022/08/23 00:34:48;;;;;;;4.43;1.90;;;;;;;;;;339938;29;1199;-82
2022/08/23 00:34:59;;;;;;;4.03;1.80;;;;;;;;;;338783;29;903;-83
2022/08/23 00:35:10;;;;;;;3.80;1.75;;;;;;;;;;337406;29;1180;-82
2022/08/23 00:35:21;;;;;;;3.25;1.67;;;;;;;;;;340004;29;825;-82
2022/08/23 00:35:32;;;;;;;2.55;1.65;;;;;;;;;;341403;29;896;-87
2022/08/23 00:35:42;;;;;;;2.17;1.60;;;;;;;;;;341339;29;1320;-82
2022/08/23 00:35:53;;;;;;;2.67;1.63;;;;;;;;;;340094;29;1264;-87
2022/08/23 00:36:03;;;;;;;3.45;1.92;;;;;;;;;;340100;29;935;-82
2022/08/23 00:36:14;;;;;;;3.73;2.00;;;;;;;;;;339968;29;1178;-82
2022/08/23 00:36:24;;;;;;;3.13;2.00;;;;;;;;;;339760;29;899;-83
2022/08/23 00:36:35;;;;;;;2.53;1.67;;;;;;;;;;339631;29;1081;-82
2022/08/23 00:36:46;;;;;;;2.78;1.50;;;;;;;;;;338732;29;1312;-82
2022/08/23 00:36:57;;;;;;;3.42;1.60;;;;;;;;;;338875;29;856;-82
2022/08/23 00:37:08;;;;;;;3.20;1.77;;;;;;;;;;340026;29;884;-82
2022/08/23 00:37:18;;;;;;;2.92;1.70;;;;;;;;;;338666;29;1323;-82
2022/08/23 00:37:30;;;;;;;2.60;1.80;;;;;;;;;;339715;29;1268;-87
2022/08/23 00:37:41;;;;;;;2.70;1.83;;;;;;;;;;340051;29;1230;-82
2022/08/23 00:37:51;;;;;;;2.70;1.80;;;;;;;;;;337515;29;1259;-82
2022/08/23 00:38:02;;;;;;;2.63;1.57;;;;;;;;;;339919;29;1260;-82
2022/08/23 00:38:12;;;;;;;3.03;1.63;;;;;;;;;;338709;29;1169;-82
2022/08/23 00:38:24;;;;;;;3.60;1.73;;;;;;;;;;339768;29;927;-81
2022/08/23 00:38:35;;;;;;;3.25;1.77;;;;;;;;;;338726;29;916;-82
2022/08/23 00:38:45;;;;;;;3.25;1.70;;;;;;;;;;339958;29;1199;-82
2022/08/23 00:38:56;;;;;;;3.03;1.60;;;;;;;;;;340193;29;852;-86
2022/08/23 00:39:06;;;;;;;3.00;1.55;;;;;;;;;;342711;28;883;-82
2022/08/23 00:39:17;;;;;;;2.70;1.70;;;;;;;;;;341210;29;844;-82
2022/08/23 00:39:28;;;;;;;2.80;1.80;;;;;;;;;;337049;29;1403;-82
2022/08/23 00:39:39;;;;;;;3.60;1.98;;;;;;;;;;337559;29;912;-82
2022/08/23 00:39:49;;;;;;;3.80;1.92;;;;;;;;;;340147;29;860;-82
2022/08/23 00:40:00;;;;;;;4.10;2.07;;;;;;;;;;339732;29;892;-83
2022/08/23 00:40:11;;;;;;;3.92;1.98;;;;;;;;;;339787;29;907;-83
2022/08/23 00:40:22;;;;;;;3.38;1.77;;;;;;;;;;338611;29;1597;-82
2022/08/23 00:40:33;;;;;;;4.07;1.77;;;;;;;;;;341061;29;927;-86
2022/08/23 00:40:45;;;;;;;4.43;1.77;;;;;;;;;;342598;28;1105;-83
2022/08/23 00:40:55;;;;;;;4.50;1.85;;;;;;;;;;340165;29;889;-86
2022/08/23 00:41:06;;;;;;;3.20;1.57;;;;;;;;;;338754;29;902;-82
2022/08/23 00:41:16;;;;;;;2.58;1.55;;;;;;;;;;338712;29;817;-82
2022/08/23 00:41:27;;;;;;;2.50;1.50;;;;;;;;;;338486;29;853;-82
2022/08/23 00:41:37;;;;;;;3.50;1.70;;;;;;;;;;342262;28;1329;-82
2022/08/23 00:41:48;;;;;;;4.07;1.70;;;;;;;;;;341410;29;1162;-82
2022/08/23 00:47:38;;;;;;;4.40;1.70;;;;;;;;;;338785;29;813;-83
2022/08/23 00:47:43;;;;;;;4.47;1.90;;;;;;;;;;345450;28;686;-82
2022/08/23 00:47:54;;;;;;;4.83;2.10;;;;;;;;;;344126;28;812;-82
2022/08/23 00:48:04;;;;;;;5.28;2.17;;;;;;;;;;345404;28;856;-82
2022/08/23 00:48:15;;;;;;;4.13;2.30;;;;;;;;;;345375;28;991;-82
2022/08/23 00:48:25;;;;;;;3.80;2.17;;;;;;;;;;344108;28;812;-82
2022/08/23 00:48:36;;;;;;;4.03;2.17;;;;;;;;;;335692;29;1329;-83
2022/08/23 00:48:47;;;;;;;4.30;1.97;;;;;;;;;;340046;29;1208;-82
2022/08/23 00:48:57;;;;;;;5.45;2.45;;;;;;;;;;340898;29;1414;-82
2022/08/23 00:49:09;;;;;;;4.73;2.37;;;;;;;;;;341205;29;1295;-82
2022/08/23 00:49:20;;;;;;;4.05;2.05;;;;;;;;;;337403;29;1354;-82
2022/08/23 00:49:31;;;;;;;3.37;2.00;;;;;;;;;;339716;29;915;-82
2022/08/23 00:49:42;;;;;;;3.83;2.38;;;;;;;;;;342663;28;1330;-82
2022/08/23 00:50:12;;;;;;;4.22;2.58;;;;;;;;;;338762;29;1494;-82
2022/08/23 00:50:40;;;;;;;5.03;2.15;;;;;;;;;;340020;29;1083;-82
2022/08/23 00:51:01;;;;;;;5.32;3.65;;;;;;;;;;341393;29;1300;-82
2022/08/23 00:51:15;;;;;;;6.30;2.72;;;;;;;;;;341286;29;1082;-82
2022/08/23 00:51:29;;;;;;;5.13;2.30;;;;;;;;;;339947;29;1358;-81
2022/08/23 00:52:00;;;;;;;4.72;2.55;;;;;;;;;;340019;29;1015;-82
2022/08/23 00:52:22;;;;;;;3.63;2.38;;;;;;;;;;338720;29;877;-83
2022/08/23 00:52:37;;;;;;;4.85;2.53;;;;;;;;;;339563;29;1542;-82
2022/08/23 00:53:16;;;;;;;5.05;2.78;;;;;;;;;;338642;29;860;-82
2022/08/23 00:53:30;;;;;;;4.03;2.63;;;;;;;;;;338656;29;1263;-81
2022/08/23 00:53:43;;;;;;;4.47;2.97;;;;;;;;;;341433;29;705;-82
2022/08/23 00:53:55;;;;;;;4.28;2.78;;;;;;;;;;342685;28;1264;-82
2022/08/23 00:54:07;;;;;;;4.60;2.88;;;;;;;;;;340026;29;1002;-82
2022/08/23 00:54:17;;;;;;;5.03;2.97;;;;;;;;;;338746;29;864;-82
2022/08/23 00:54:28;;;;;;;5.53;3.00;;;;;;;;;;338610;29;1188;-82
2022/08/23 00:54:38;;;;;;;4.77;2.80;;;;;;;;;;341172;29;888;-82
2022/08/23 00:54:49;;;;;;;4.57;2.92;;;;;;;;;;341394;29;801;-82
2022/08/23 00:55:00;;;;;;;4.57;2.93;;;;;;;;;;342465;28;1686;-86
2022/08/23 00:55:10;;;;;;;4.82;3.05;;;;;;;;;;340059;29;820;-82
2022/08/23 00:55:21;;;;;;;4.97;2.97;;;;;;;;;;341448;29;991;-82
2022/08/23 00:55:32;;;;;;;5.05;3.08;;;;;;;;;;339632;29;1447;-83
2022/08/23 00:55:44;;;;;;;4.65;2.85;;;;;;;;;;342638;28;1323;-82
2022/08/23 00:55:57;;;;;;;5.80;2.95;;;;;;;;;;340169;29;884;-82
2022/08/23 00:56:09;;;;;;;6.20;3.08;;;;;;;;;;338624;29;868;-82
2022/08/23 00:56:21;;;;;;;5.78;2.78;;;;;;;;;;341140;29;927;-82
2022/08/23 00:56:32;;;;;;;4.43;2.67;;;;;;;;;;342252;28;1424;-82
2022/08/23 00:56:43;;;;;;;4.53;2.83;;;;;;;;;;338673;29;1338;-82
2022/08/23 00:56:55;;;;;;;4.75;3.20;;;;;;;;;;338198;29;1739;-81
2022/08/23 00:57:10;;;;;;;4.93;3.00;;;;;;;;;;340454;29;1083;-82
2022/08/23 00:57:21;;;;;;;4.53;2.88;;;;;;;;;;339890;29;1409;-82
2022/08/23 00:57:31;;;;;;;5.30;3.43;;;;;;;;;;340303;29;1148;-81
2022/08/23 00:57:42;;;;;;;5.03;3.50;;;;;;;;;;341295;29;1439;-82
2022/08/23 00:57:52;;;;;;;5.27;3.60;;;;;;;;;;339974;29;1266;-82
2022/08/23 00:58:03;;;;;;;5.18;3.05;;;;;;;;;;337235;29;1320;-82
2022/08/23 00:58:13;;;;;;;5.30;3.00;;;;;;;;;;337290;29;1179;-82
2022/08/23 00:58:24;;;;;;;5.25;2.85;;;;;;;;;;340098;29;942;-82
2022/08/23 00:58:35;;;;;;;4.70;3.00;;;;;;;;;;339554;29;1182;-82
2022/08/23 00:58:45;;;;;;;4.23;2.93;;;;;;;;;;340057;29;1321;-82
2022/08/23 00:58:56;;;;;;;4.95;2.85;;;;;;;;;;339919;29;1246;-82
2022/08/23 00:59:07;;;;;;;5.05;2.83;;;;;;;;;;339300;29;1323;-82
2022/08/23 00:59:18;;;;;;;5.50;2.97;;;;;;;;;;341307;29;1162;-82
2022/08/23 00:59:28;;;;;;;5.53;3.17;;;;;;;;;;340069;29;840;-82
2022/08/23 00:59:39;;;;;;;5.32;3.20;;;;;;;;;;341099;29;919;-82
2022/08/23 00:59:50;;;;;;;4.78;3.08;;;;;;;;;;337393;29;1210;-82
2022/08/23 01:00:00;;;;;;;5.50;3.20;;;;;;;;;;338717;29;918;-87
2022/08/23 01:00:11;;;;;;;5.55;3.40;;;;;;;;;;341263;29;1399;-82
2022/08/23 01:00:22;;;;;;;6.43;3.53;;;;;;;;;;340019;29;1283;-82
2022/08/23 01:00:32;;;;;;;6.80;3.60;;;;;;;;;;343609;28;1029;-82
2022/08/23 01:00:43;;;;;;;7.55;3.22;;;;;;;;;;339956;29;1198;-82
2022/08/23 01:00:54;;;;;;;6.55;2.78;;;;;;;;;;340084;29;817;-87
2022/08/23 01:01:05;;;;;;;5.07;2.53;;;;;;;;;;339721;29;1384;-86
2022/08/23 01:01:16;;;;;;;4.78;2.63;;;;;;;;;;338810;29;857;-82
2022/08/23 01:01:26;;;;;;;5.13;2.65;;;;;;;;;;341436;29;952;-82
2022/08/23 01:01:37;;;;;;;5.93;3.33;;;;;;;;;;340984;29;1321;-82
2022/08/23 01:01:48;;;;;;;6.53;3.60;;;;;;;;;;338756;29;1370;-82
2022/08/23 01:01:59;;;;;;;5.53;3.60;;;;;;;;;;341295;29;844;-82
2022/08/23 01:02:09;;;;;;;4.78;2.97;;;;;;;;;;341405;29;854;-82
2022/08/23 01:02:20;;;;;;;4.80;2.72;;;;;;;;;;340137;29;849;-82
2022/08/23 01:02:30;;;;;;;4.95;2.60;;;;;;;;;;341312;28;837;-87
2022/08/23 01:02:41;;;;;;;5.13;2.57;;;;;;;;;;341084;29;1582;-82
2022/08/23 01:02:51;;;;;;;4.43;2.72;;;;;;;;;;338723;29;1368;-82
2022/08/23 01:03:02;;;;;;;4.17;2.80;;;;;;;;;;337135;29;1974;-83
2022/08/23 01:03:13;;;;;;;3.95;2.90;;;;;;;;;;337516;29;936;-82
2022/08/23 01:03:25;;;;;;;4.20;2.90;;;;;;;;;;338702;29;1179;-82
2022/08/23 01:03:37;;;;;;;4.13;2.88;;;;;;;;;;338471;29;1319;-81
2022/08/23 01:03:53;;;;;;;4.10;2.75;;;;;;;;;;339814;29;1225;-81
2022/08/23 01:04:04;;;;;;;5.20;2.72;;;;;;;;;;340144;29;1466;-82
2022/08/23 01:04:15;;;;;;;5.63;2.97;;;;;;;;;;338733;29;1108;-82
2022/08/23 01:04:27;;;;;;;5.63;2.92;;;;;;;;;;340299;29;956;-82
2022/08/23 01:04:40;;;;;;;4.93;2.70;;;;;;;;;;339958;29;1240;-82
2022/08/23 01:04:54;;;;;;;4.93;2.90;;;;;;;;;;340190;29;1540;-82
2022/08/23 01:05:05;;;;;;;4.90;2.75;;;;;;;;;;339994;29;1249;-82
2022/08/23 01:05:16;;;;;;;5.47;2.80;;;;;;;;;;341471;28;1291;-82
2022/08/23 01:05:30;;;;;;;5.47;2.72;;;;;;;;;;342960;28;1194;-82
2022/08/23 01:06:10;;;;;;;5.75;2.70;;;;;;;;;;341397;29;630;-82
2022/08/23 01:06:27;;;;;;;4.40;2.63;;;;;;;;;;340373;29;960;-82
2022/08/23 01:06:46;;;;;;;6.60;2.60;;;;;;;;;;339954;29;948;-82
2022/08/23 01:07:02;;;;;;;5.05;2.90;;;;;;;;;;338906;29;888;-81
2022/08/23 01:07:27;;;;;;;4.47;2.67;;;;;;;;;;338995;29;857;-82
2022/08/23 01:07:41;;;;;;;4.68;2.80;;;;;;;;;;339939;29;881;-81
2022/08/23 01:07:55;;;;;;;5.28;2.80;;;;;;;;;;340381;29;1016;-82
2022/08/23 01:08:05;;;;;;;6.53;2.85;;;;;;;;;;341391;29;866;-82
2022/08/23 01:08:16;;;;;;;6.43;2.92;;;;;;;;;;338988;29;829;-82
2022/08/23 01:08:26;;;;;;;5.53;2.73;;;;;;;;;;337389;29;798;-81
2022/08/23 01:08:37;;;;;;;4.28;2.60;;;;;;;;;;337456;29;889;-81
2022/08/23 01:08:50;;;;;;;4.00;2.42;;;;;;;;;;340265;29;1175;-82
2022/08/23 01:09:06;;;;;;;4.68;2.75;;;;;;;;;;338775;29;829;-82
2022/08/23 01:09:18;;;;;;;5.63;2.88;;;;;;;;;;340363;29;903;-81
2022/08/23 01:09:28;;;;;;;5.93;2.80;;;;;;;;;;342799;28;1285;-81
2022/08/23 01:09:39;;;;;;;5.07;2.70;;;;;;;;;;342819;28;816;-81
2022/08/23 01:09:50;;;;;;;4.70;2.70;;;;;;;;;;340245;29;1174;-82
2022/08/23 01:10:03;;;;;;;4.03;2.77;;;;;;;;;;338792;29;1282;-82
2022/08/23 01:10:21;;;;;;;4.32;3.00;;;;;;;;;;341656;29;668;-82
2022/08/23 01:10:36;;;;;;;4.55;2.80;;;;;;;;;;338921;29;856;-87
2022/08/23 01:10:49;;;;;;;4.25;2.75;;;;;;;;;;338939;29;1356;-81
2022/08/23 01:11:05;;;;;;;4.47;2.85;;;;;;;;;;338719;29;1303;-83
2022/08/23 01:11:32;;;;;;;4.45;2.75;;;;;;;;;;340131;29;923;-81
2022/08/23 01:11:51;;;;;;;5.15;2.70;;;;;;;;;;339394;29;934;-81
2022/08/23 01:12:15;;;;;;;4.47;2.50;;;;;;;;;;338816;29;986;-83
2022/08/23 01:12:32;;;;;;;4.05;2.60;;;;;;;;;;337650;29;905;-82
2022/08/23 01:12:45;;;;;;;4.45;2.60;;;;;;;;;;337528;29;951;-81
2022/08/23 01:12:59;;;;;;;4.53;2.50;;;;;;;;;;342563;28;1256;-81
2022/08/23 01:13:33;;;;;;;4.47;2.45;;;;;;;;;;341569;29;906;-82
2022/08/23 01:13:57;;;;;;;3.75;2.45;;;;;;;;;;341451;29;912;-81
2022/08/23 01:14:16;;;;;;;4.25;2.67;;;;;;;;;;340119;29;1045;-87
2022/08/23 01:14:30;;;;;;;4.30;2.67;;;;;;;;;;340225;29;1442;-82
2022/08/23 01:14:50;;;;;;;3.83;2.40;;;;;;;;;;340009;29;1333;-82
2022/08/23 01:15:09;;;;;;;3.80;2.10;;;;;;;;;;338756;29;836;-83
2022/08/23 01:15:27;;;;;;;4.20;2.70;;;;;;;;;;341553;28;1375;-82
2022/08/23 01:15:42;;;;;;;5.07;3.00;;;;;;;;;;341436;28;1220;-82
2022/08/23 01:16:16;;;;;;;4.63;2.58;;;;;;;;;;337705;29;1516;-82
2022/08/23 01:16:39;;;;;;;3.95;2.50;;;;;;;;;;337693;29;905;-82
2022/08/23 01:16:52;;;;;;;4.97;2.63;;;;;;;;;;341567;29;957;-81
2022/08/23 01:17:09;;;;;;;4.30;2.75;;;;;;;;;;339831;29;1279;-82
2022/08/23 01:17:42;;;;;;;3.80;2.60;;;;;;;;;;338942;29;868;-81
2022/08/23 01:18:02;;;;;;;4.35;2.55;;;;;;;;;;336459;29;888;-82
2022/08/23 01:18:13;;;;;;;4.43;2.83;;;;;;;;;;337709;29;865;-82
2022/08/23 01:18:25;;;;;;;4.05;2.67;;;;;;;;;;337651;29;1287;-82
2022/08/23 01:18:35;;;;;;;4.30;2.50;;;;;;;;;;337099;29;1387;-81
2022/08/23 01:18:46;;;;;;;4.23;2.30;;;;;;;;;;338717;29;1166;-82
2022/08/23 01:18:57;;;;;;;5.25;2.47;;;;;;;;;;338822;29;1331;-82
2022/08/23 01:19:20;;;;;;;5.05;2.67;;;;;;;;;;338756;29;1349;-87
2022/08/23 01:19:51;;;;;;;5.10;3.05;;;;;;;;;;338830;29;1454;-86
2022/08/23 01:20:06;;;;;;;3.95;2.47;;;;;;;;;;337454;29;868;-82
2022/08/23 01:20:18;;;;;;;3.38;2.20;;;;;;;;;;337624;29;861;-82
2022/08/23 01:20:32;;;;;;;3.85;2.30;;;;;;;;;;340191;29;1115;-81
2022/08/23 01:20:45;;;;;;;4.43;2.58;;;;;;;;;;338716;29;1219;-82
2022/08/23 01:21:12;;;;;;;4.50;2.78;;;;;;;;;;338908;29;1214;-82
2022/08/23 01:21:44;;;;;;;4.70;2.70;;;;;;;;;;338968;29;1347;-81
2022/08/23 01:22:02;;;;;;;3.65;2.28;;;;;;;;;;339777;29;896;-86
2022/08/23 01:22:36;;;;;;;3.42;2.00;;;;;;;;;;341606;29;1033;-83
2022/08/23 01:22:51;;;;;;;4.88;2.70;;;;;;;;;;339988;29;1213;-81
2022/08/23 01:23:29;;;;;;;5.55;2.90;;;;;;;;;;342701;28;1911;-82
2022/08/23 01:23:43;;;;;;;4.10;2.65;;;;;;;;;;338872;29;853;-82
2022/08/23 01:23:57;;;;;;;3.80;2.45;;;;;;;;;;337493;29;1015;-82
2022/08/23 01:24:09;;;;;;;4.25;2.40;;;;;;;;;;338708;29;1283;-82
2022/08/23 01:24:19;;;;;;;4.93;2.63;;;;;;;;;;336394;29;825;-82
2022/08/23 01:24:30;;;;;;;4.93;2.60;;;;;;;;;;337484;29;1304;-86
2022/08/23 01:24:40;;;;;;;4.37;2.60;;;;;;;;;;337682;29;1082;-81